createdAt,value
2018-09-01T00:00:29.157Z,12.57
2018-09-01T00:01:29.105Z,12.61
2018-09-01T00:02:29.060Z,12.62
2018-09-01T00:03:29.080Z,12.65
2018-09-01T00:04:28.970Z,12.62
2018-09-01T00:05:28.926Z,12.62
2018-09-01T00:06:28.908Z,12.65
2018-09-01T00:07:28.974Z,12.61
2018-09-01T00:08:28.798Z,12.55
2018-09-01T00:09:28.757Z,12.51
2018-09-01T00:10:28.703Z,12.50
2018-09-01T00:11:28.658Z,12.47
2018-09-01T00:12:28.958Z,12.47
2018-09-01T00:13:28.569Z,12.45
2018-09-01T00:14:28.523Z,12.45
2018-09-01T00:15:28.480Z,12.43
2018-09-01T00:16:28.453Z,12.37
2018-09-01T00:17:28.387Z,12.44
2018-09-01T00:18:28.396Z,12.37
2018-09-01T00:19:28.301Z,12.36
2018-09-01T00:20:28.261Z,12.39
2018-09-01T00:21:28.210Z,12.30
2018-09-01T00:22:28.165Z,12.35
2018-09-01T00:23:28.122Z,12.29
2018-09-01T00:24:28.082Z,12.28
2018-09-01T00:25:28.031Z,12.25
2018-09-01T00:26:27.987Z,12.29
2018-09-01T00:27:27.943Z,12.28
2018-09-01T00:28:27.900Z,12.26
2018-09-01T00:29:27.852Z,12.32
2018-09-01T00:30:27.953Z,12.26
2018-09-01T00:31:27.766Z,12.17
2018-09-01T00:32:27.718Z,12.29
2018-09-01T00:33:27.672Z,12.21
2018-09-01T00:34:27.629Z,12.23
2018-09-01T00:35:27.585Z,12.26
2018-09-01T00:36:27.544Z,12.21
2018-09-01T00:37:27.587Z,12.20
2018-09-01T00:38:27.448Z,12.20
2018-09-01T00:39:27.403Z,12.14
2018-09-01T00:40:27.362Z,12.17
2018-09-01T00:41:27.317Z,12.11
2018-09-01T00:42:27.270Z,12.15
2018-09-01T00:43:27.229Z,12.17
2018-09-01T00:44:27.190Z,12.17
2018-09-01T00:45:27.138Z,12.03
2018-09-01T00:46:27.089Z,11.95
2018-09-01T00:47:27.046Z,12.03
2018-09-01T00:48:27.004Z,11.97
2018-09-01T00:49:26.956Z,12.05
2018-09-01T00:50:26.910Z,11.99
2018-09-01T00:51:26.867Z,12.05
2018-09-01T00:52:26.824Z,11.97
2018-09-01T00:53:26.776Z,12.02
2018-09-01T00:54:26.733Z,12.02
2018-09-01T00:55:26.690Z,11.96
2018-09-01T00:56:26.645Z,12.00
2018-09-01T00:57:26.598Z,11.89
2018-09-01T00:58:26.554Z,11.95
2018-09-01T00:59:26.508Z,11.86
2018-09-01T01:00:26.464Z,11.91
2018-09-01T01:01:26.417Z,11.89
2018-09-01T01:02:26.378Z,11.85
2018-09-01T01:03:26.330Z,11.86
2018-09-01T01:04:26.284Z,11.86
2018-09-01T01:05:26.241Z,11.83
2018-09-01T01:06:26.196Z,11.74
2018-09-01T01:07:26.148Z,11.68
2018-09-01T01:08:26.104Z,11.76
2018-09-01T01:09:26.058Z,11.70
2018-09-01T01:10:26.017Z,11.76
2018-09-01T01:11:25.969Z,11.65
2018-09-01T01:12:25.924Z,11.68
2018-09-01T01:13:25.876Z,11.68
2018-09-01T01:14:25.832Z,11.68
2018-09-01T01:15:25.789Z,11.62
2018-09-01T01:16:25.743Z,11.68
2018-09-01T01:17:25.697Z,11.65
2018-09-01T01:18:25.652Z,11.59
2018-09-01T01:19:25.611Z,11.65
2018-09-01T01:20:25.562Z,11.58
2018-09-01T01:21:25.520Z,11.53
2018-09-01T01:22:25.471Z,11.58
2018-09-01T01:23:25.429Z,11.55
2018-09-01T01:24:25.383Z,11.48
2018-09-01T01:25:25.340Z,11.49
2018-09-01T01:26:25.294Z,11.49
2018-09-01T01:27:25.250Z,11.55
2018-09-01T01:28:25.201Z,11.45
2018-09-01T01:29:25.156Z,11.45
2018-09-01T01:30:25.115Z,11.51
2018-09-01T01:31:25.070Z,11.52
2018-09-01T01:32:25.022Z,11.48
2018-09-01T01:33:24.977Z,11.45
2018-09-01T01:34:24.931Z,11.41
2018-09-01T01:35:24.886Z,11.43
2018-09-01T01:36:24.845Z,11.45
2018-09-01T01:37:24.802Z,11.43
2018-09-01T01:38:24.751Z,11.48
2018-09-01T01:39:24.709Z,11.41
2018-09-01T01:40:24.662Z,11.48
2018-09-01T01:41:24.617Z,11.44
2018-09-01T01:42:24.574Z,11.40
2018-09-01T01:43:24.533Z,11.37
2018-09-01T01:44:24.483Z,11.37
2018-09-01T01:45:24.435Z,11.41
2018-09-01T01:46:24.392Z,11.37
2018-09-01T01:47:24.345Z,11.27
2018-09-01T01:48:24.302Z,11.34
2018-09-01T01:49:24.284Z,11.31
2018-09-01T01:50:24.211Z,11.25
2018-09-01T01:51:24.163Z,11.31
2018-09-01T01:52:24.310Z,11.31
2018-09-01T01:53:24.072Z,11.33
2018-09-01T01:54:24.031Z,11.34
2018-09-01T01:55:23.982Z,11.18
2018-09-01T01:56:23.944Z,11.26
2018-09-01T01:57:23.892Z,11.25
2018-09-01T01:58:23.855Z,11.22
2018-09-01T01:59:23.812Z,11.23
2018-09-01T02:00:23.757Z,11.22
2018-09-01T02:01:23.712Z,11.22
2018-09-01T02:02:23.665Z,11.22
2018-09-01T02:03:23.621Z,11.18
2018-09-01T02:04:23.574Z,11.16
2018-09-01T02:05:23.537Z,11.10
2018-09-01T02:06:23.489Z,11.16
2018-09-01T02:07:23.446Z,11.04
2018-09-01T02:08:23.392Z,11.12
2018-09-01T02:09:23.353Z,11.07
2018-09-01T02:10:23.304Z,11.07
2018-09-01T02:11:23.257Z,11.12
2018-09-01T02:12:23.217Z,11.05
2018-09-01T02:13:23.170Z,11.12
2018-09-01T02:14:23.122Z,11.00
2018-09-01T02:15:23.077Z,11.01
2018-09-01T02:16:23.036Z,10.98
2018-09-01T02:17:22.988Z,11.00
2018-09-01T02:18:22.943Z,11.00
2018-09-01T02:19:22.896Z,11.04
2018-09-01T02:20:22.854Z,10.98
2018-09-01T02:21:22.806Z,10.94
2018-09-01T02:22:22.764Z,10.89
2018-09-01T02:23:22.716Z,10.86
2018-09-01T02:24:22.680Z,10.86
2018-09-01T02:25:22.626Z,10.94
2018-09-01T02:26:22.584Z,10.90
2018-09-01T02:27:22.535Z,10.87
2018-09-01T02:28:22.488Z,10.92
2018-09-01T02:29:22.442Z,10.87
2018-09-01T02:30:22.398Z,10.87
2018-09-01T02:31:22.350Z,10.86
2018-09-01T02:32:22.309Z,10.94
2018-09-01T02:33:22.262Z,10.82
2018-09-01T02:34:22.217Z,10.80
2018-09-01T02:35:22.176Z,10.80
2018-09-01T02:36:22.128Z,10.84
2018-09-01T02:37:22.080Z,10.83
2018-09-01T02:38:22.033Z,10.80
2018-09-01T02:39:21.989Z,10.86
2018-09-01T02:40:21.942Z,10.83
2018-09-01T02:41:21.897Z,10.72
2018-09-01T02:42:21.856Z,10.79
2018-09-01T02:43:21.811Z,10.77
2018-09-01T02:44:21.765Z,10.76
2018-09-01T02:45:21.715Z,10.76
2018-09-01T02:46:21.671Z,10.72
2018-09-01T02:47:21.626Z,10.72
2018-09-01T02:48:21.579Z,10.76
2018-09-01T02:49:21.535Z,10.75
2018-09-01T02:50:21.493Z,10.65
2018-09-01T02:51:21.442Z,10.67
2018-09-01T02:52:21.397Z,10.76
2018-09-01T02:53:21.354Z,10.68
2018-09-01T02:54:21.307Z,10.64
2018-09-01T02:55:21.262Z,10.68
2018-09-01T02:56:21.216Z,10.65
2018-09-01T02:57:21.173Z,10.64
2018-09-01T02:58:21.124Z,10.62
2018-09-01T02:59:21.078Z,10.61
2018-09-01T03:00:21.033Z,10.61
2018-09-01T03:01:20.986Z,10.59
2018-09-01T03:02:20.945Z,10.55
2018-09-01T03:03:20.899Z,10.61
2018-09-01T03:04:20.857Z,10.57
2018-09-01T03:05:20.805Z,10.65
2018-09-01T03:06:20.761Z,10.58
2018-09-01T03:07:20.733Z,10.55
2018-09-01T03:08:20.672Z,10.62
2018-09-01T03:09:20.628Z,10.55
2018-09-01T03:10:20.583Z,10.61
2018-09-01T03:11:20.537Z,10.61
2018-09-01T03:12:20.492Z,10.61
2018-09-01T03:13:20.442Z,10.57
2018-09-01T03:14:20.396Z,10.55
2018-09-01T03:15:20.357Z,10.55
2018-09-01T03:16:20.311Z,10.53
2018-09-01T03:17:20.265Z,10.51
2018-09-01T03:18:20.215Z,10.48
2018-09-01T03:19:20.174Z,10.49
2018-09-01T03:20:20.124Z,10.57
2018-09-01T03:21:20.077Z,10.48
2018-09-01T03:22:20.034Z,10.49
2018-09-01T03:23:19.992Z,10.57
2018-09-01T03:24:19.949Z,10.48
2018-09-01T03:25:19.895Z,10.51
2018-09-01T03:26:19.851Z,10.46
2018-09-01T03:27:19.804Z,10.48
2018-09-01T03:28:19.760Z,10.46
2018-09-01T03:29:19.720Z,10.49
2018-09-01T03:30:19.668Z,10.55
2018-09-01T03:31:19.622Z,10.53
2018-09-01T03:32:19.578Z,10.48
2018-09-01T03:33:19.533Z,10.42
2018-09-01T03:34:19.490Z,10.45
2018-09-01T03:35:19.445Z,10.43
2018-09-01T03:36:19.401Z,10.39
2018-09-01T03:37:19.349Z,10.51
2018-09-01T03:38:19.308Z,10.38
2018-09-01T03:39:19.258Z,10.45
2018-09-01T03:40:19.213Z,10.45
2018-09-01T03:41:19.170Z,10.48
2018-09-01T03:42:19.122Z,10.51
2018-09-01T03:43:19.087Z,10.38
2018-09-01T03:44:19.033Z,10.36
2018-09-01T03:45:18.984Z,10.36
2018-09-01T03:46:18.939Z,10.36
2018-09-01T03:47:18.892Z,10.39
2018-09-01T03:48:18.847Z,10.42
2018-09-01T03:49:18.802Z,10.36
2018-09-01T03:50:18.757Z,10.34
2018-09-01T03:51:18.715Z,10.36
2018-09-01T03:52:18.664Z,10.34
2018-09-01T03:53:18.628Z,10.34
2018-09-01T03:54:18.573Z,10.36
2018-09-01T03:55:18.530Z,10.34
2018-09-01T03:56:18.482Z,10.43
2018-09-01T03:57:18.437Z,10.39
2018-09-01T03:58:18.389Z,10.36
2018-09-01T03:59:18.346Z,10.34
2018-09-01T04:00:18.301Z,10.31
2018-09-01T04:01:18.253Z,10.34
2018-09-01T04:02:18.208Z,10.39
2018-09-01T04:03:18.162Z,10.38
2018-09-01T04:04:18.128Z,10.43
2018-09-01T04:05:18.070Z,10.31
2018-09-01T04:06:18.030Z,10.38
2018-09-01T04:07:17.982Z,10.41
2018-09-01T04:08:17.938Z,10.39
2018-09-01T04:09:17.889Z,10.31
2018-09-01T04:10:17.842Z,10.34
2018-09-01T04:11:17.796Z,10.36
2018-09-01T04:12:17.757Z,10.36
2018-09-01T04:13:17.718Z,10.36
2018-09-01T04:14:17.671Z,10.36
2018-09-01T04:15:17.624Z,10.34
2018-09-01T04:16:17.570Z,10.28
2018-09-01T04:17:17.524Z,10.38
2018-09-01T04:18:17.482Z,10.25
2018-09-01T04:19:17.440Z,10.27
2018-09-01T04:20:17.394Z,10.25
2018-09-01T04:21:17.344Z,10.24
2018-09-01T04:22:17.298Z,10.27
2018-09-01T04:23:17.267Z,10.28
2018-09-01T04:24:17.209Z,10.28
2018-09-01T04:25:17.160Z,10.27
2018-09-01T04:26:17.113Z,10.25
2018-09-01T04:27:17.074Z,10.23
2018-09-01T04:28:17.024Z,10.28
2018-09-01T04:29:16.974Z,10.25
2018-09-01T04:30:16.931Z,10.25
2018-09-01T04:31:16.898Z,10.25
2018-09-01T04:32:16.840Z,10.13
2018-09-01T04:33:16.795Z,10.28
2018-09-01T04:34:16.752Z,10.27
2018-09-01T04:35:16.704Z,10.28
2018-09-01T04:36:16.658Z,10.30
2018-09-01T04:37:16.611Z,10.27
2018-09-01T04:38:16.564Z,10.25
2018-09-01T04:39:16.526Z,10.30
2018-09-01T04:40:16.480Z,10.20
2018-09-01T04:41:16.432Z,10.28
2018-09-01T04:42:16.383Z,10.23
2018-09-01T04:43:16.338Z,10.28
2018-09-01T04:44:16.307Z,10.24
2018-09-01T04:45:16.246Z,10.21
2018-09-01T04:46:16.199Z,10.17
2018-09-01T04:47:16.155Z,10.25
2018-09-01T04:48:16.110Z,10.25
2018-09-01T04:49:16.064Z,10.21
2018-09-01T04:50:16.016Z,10.15
2018-09-01T04:51:15.972Z,10.27
2018-09-01T04:52:15.925Z,10.13
2018-09-01T04:53:15.877Z,10.17
2018-09-01T04:54:15.835Z,10.24
2018-09-01T04:55:15.789Z,10.17
2018-09-01T04:56:15.746Z,10.18
2018-09-01T04:57:15.701Z,10.15
2018-09-01T04:58:15.654Z,10.18
2018-09-01T04:59:15.607Z,10.18
2018-09-01T05:00:15.560Z,10.13
2018-09-01T05:01:15.540Z,10.18
2018-09-01T05:02:15.468Z,10.24
2018-09-01T05:03:15.422Z,10.18
2018-09-01T05:04:15.383Z,10.25
2018-09-01T05:05:15.334Z,10.24
2018-09-01T05:06:15.285Z,10.27
2018-09-01T05:07:15.241Z,10.31
2018-09-01T05:08:15.196Z,10.25
2018-09-01T05:09:15.147Z,10.25
2018-09-01T05:10:15.102Z,10.24
2018-09-01T05:11:15.057Z,10.30
2018-09-01T05:12:15.014Z,10.23
2018-09-01T05:13:14.967Z,10.25
2018-09-01T05:14:14.919Z,10.21
2018-09-01T05:15:14.877Z,10.33
2018-09-01T05:16:14.833Z,10.25
2018-09-01T05:17:14.783Z,10.25
2018-09-01T05:18:14.743Z,10.30
2018-09-01T05:19:14.694Z,10.36
2018-09-01T05:20:14.649Z,10.39
2018-09-01T05:21:14.609Z,10.34
2018-09-01T05:22:14.558Z,10.42
2018-09-01T05:23:14.508Z,10.33
2018-09-01T05:24:14.462Z,10.39
2018-09-01T05:25:14.422Z,10.42
2018-09-01T05:26:14.370Z,10.42
2018-09-01T05:27:14.327Z,10.33
2018-09-01T05:28:14.279Z,10.36
2018-09-01T05:29:14.239Z,10.38
2018-09-01T05:30:14.194Z,10.46
2018-09-01T05:31:14.144Z,10.42
2018-09-01T05:32:14.101Z,10.46
2018-09-01T05:33:14.051Z,10.48
2018-09-01T05:34:14.006Z,10.48
2018-09-01T05:35:13.962Z,10.43
2018-09-01T05:36:13.922Z,10.49
2018-09-01T05:37:13.868Z,10.51
2018-09-01T05:38:13.822Z,10.49
2018-09-01T05:39:13.781Z,10.57
2018-09-01T05:40:13.735Z,10.58
2018-09-01T05:41:13.687Z,10.61
2018-09-01T05:42:13.644Z,10.57
2018-09-01T05:43:13.595Z,10.64
2018-09-01T05:44:13.554Z,10.64
2018-09-01T05:45:13.506Z,10.64
2018-09-01T05:46:13.459Z,10.64
2018-09-01T05:47:13.414Z,10.76
2018-09-01T05:48:13.368Z,10.72
2018-09-01T05:49:13.324Z,10.75
2018-09-01T05:50:13.276Z,10.76
2018-09-01T05:51:13.242Z,10.79
2018-09-01T05:52:13.188Z,10.75
2018-09-01T05:53:13.144Z,10.84
2018-09-01T05:54:13.095Z,10.80
2018-09-01T05:55:13.048Z,10.94
2018-09-01T05:56:13.003Z,10.90
2018-09-01T05:57:12.960Z,10.92
2018-09-01T05:58:12.914Z,10.92
2018-09-01T05:59:12.866Z,10.89
2018-09-01T06:00:12.826Z,10.97
2018-09-01T06:01:12.777Z,11.01
2018-09-01T06:02:12.734Z,11.10
2018-09-01T06:03:12.687Z,11.08
2018-09-01T06:04:12.645Z,11.05
2018-09-01T06:05:12.593Z,11.16
2018-09-01T06:06:12.721Z,11.20
2018-09-01T06:07:12.504Z,11.19
2018-09-01T06:08:12.458Z,11.25
2018-09-01T06:09:12.412Z,11.25
2018-09-01T06:10:12.369Z,11.25
2018-09-01T06:11:12.328Z,11.34
2018-09-01T06:12:12.281Z,11.35
2018-09-01T06:13:12.235Z,11.40
2018-09-01T06:14:12.187Z,11.45
2018-09-01T06:15:12.143Z,11.43
2018-09-01T06:16:12.098Z,11.53
2018-09-01T06:17:12.052Z,11.45
2018-09-01T06:18:12.007Z,11.58
2018-09-01T06:19:11.974Z,11.56
2018-09-01T06:20:11.915Z,11.59
2018-09-01T06:21:11.872Z,11.63
2018-09-01T06:22:11.824Z,11.65
2018-09-01T06:23:11.788Z,11.70
2018-09-01T06:24:11.737Z,11.74
2018-09-01T06:25:11.690Z,11.74
2018-09-01T06:26:11.645Z,11.91
2018-09-01T06:27:11.600Z,11.83
2018-09-01T06:28:11.559Z,11.97
2018-09-01T06:29:11.510Z,11.96
2018-09-01T06:30:11.544Z,12.02
2018-09-01T06:31:11.424Z,12.00
2018-09-01T06:32:11.378Z,12.11
2018-09-01T06:33:11.332Z,12.15
2018-09-01T06:34:11.292Z,12.23
2018-09-01T06:35:11.240Z,12.17
2018-09-01T06:36:11.198Z,12.23
2018-09-01T06:37:11.150Z,12.26
2018-09-01T06:38:11.107Z,12.30
2018-09-01T06:39:11.068Z,12.43
2018-09-01T06:40:11.019Z,12.45
2018-09-01T06:41:10.973Z,12.45
2018-09-01T06:42:10.930Z,12.45
2018-09-01T06:43:10.947Z,12.61
2018-09-01T06:44:10.839Z,12.65
2018-09-01T06:45:10.795Z,12.58
2018-09-01T06:46:10.748Z,12.70
2018-09-01T06:47:10.703Z,12.72
2018-09-01T06:48:10.661Z,12.76
2018-09-01T06:49:10.618Z,12.83
2018-09-01T06:50:10.568Z,12.81
2018-09-01T06:51:10.527Z,12.90
2018-09-01T06:52:10.930Z,12.88
2018-09-01T06:53:10.447Z,13.02
2018-09-01T06:54:10.390Z,13.01
2018-09-01T06:55:10.352Z,13.12
2018-09-01T06:56:10.302Z,13.17
2018-09-01T06:57:10.257Z,13.20
2018-09-01T06:58:10.211Z,13.30
2018-09-01T06:59:10.172Z,13.36
2018-09-01T07:00:10.126Z,13.39
2018-09-01T07:01:10.079Z,13.36
2018-09-01T07:02:10.080Z,13.50
2018-09-01T07:03:09.993Z,13.61
2018-09-01T07:04:09.952Z,13.52
2018-09-01T07:05:09.912Z,13.80
2018-09-01T07:06:09.857Z,13.94
2018-09-01T07:07:09.980Z,14.05
2018-09-01T07:08:09.772Z,14.22
2018-09-01T07:09:09.725Z,14.36
2018-09-01T07:10:09.682Z,14.36
2018-09-01T07:11:09.644Z,14.36
2018-09-01T07:12:09.610Z,14.38
2018-09-01T07:13:09.551Z,14.44
2018-09-01T07:14:09.504Z,14.45
2018-09-01T07:15:09.468Z,14.49
2018-09-01T07:16:09.422Z,14.59
2018-09-01T07:17:09.374Z,14.58
2018-09-01T07:18:09.333Z,14.71
2018-09-01T07:19:09.286Z,14.68
2018-09-01T07:20:09.241Z,14.81
2018-09-01T07:21:09.200Z,15.10
2018-09-01T07:22:09.169Z,15.08
2018-09-01T07:23:09.121Z,15.32
2018-09-01T07:24:09.082Z,15.36
2018-09-01T07:25:09.022Z,15.59
2018-09-01T07:26:08.981Z,15.60
2018-09-01T07:27:08.934Z,15.69
2018-09-01T07:28:08.891Z,15.83
2018-09-01T07:29:08.850Z,15.92
2018-09-01T07:30:08.839Z,16.09
2018-09-01T07:31:09.158Z,16.18
2018-09-01T07:32:08.720Z,16.21
2018-09-01T07:33:08.674Z,16.39
2018-09-01T07:34:08.630Z,16.61
2018-09-01T07:35:08.589Z,16.73
2018-09-01T07:36:08.547Z,16.83
2018-09-01T07:37:08.501Z,16.91
2018-09-01T07:38:08.460Z,17.05
2018-09-01T07:39:08.414Z,17.16
2018-09-01T07:40:08.371Z,17.34
2018-09-01T07:41:08.326Z,17.24
2018-09-01T07:42:08.287Z,17.52
2018-09-01T07:43:08.241Z,17.54
2018-09-01T07:44:08.198Z,17.69
2018-09-01T07:45:08.174Z,17.69
2018-09-01T07:46:08.112Z,17.88
2018-09-01T07:47:08.071Z,17.97
2018-09-01T07:48:08.026Z,18.05
2018-09-01T07:49:07.984Z,18.21
2018-09-01T07:50:08.008Z,18.28
2018-09-01T07:51:07.908Z,18.39
2018-09-01T07:52:07.857Z,18.43
2018-09-01T07:53:07.814Z,18.55
2018-09-01T07:54:07.773Z,18.60
2018-09-01T07:55:07.727Z,18.68
2018-09-01T07:56:07.785Z,18.81
2018-09-01T07:57:07.644Z,18.92
2018-09-01T07:58:07.602Z,18.98
2018-09-01T07:59:07.555Z,19.00
2018-09-01T08:00:07.515Z,19.07
2018-09-01T08:01:07.471Z,19.19
2018-09-01T08:02:07.432Z,19.29
2018-09-01T08:03:07.388Z,19.32
2018-09-01T08:04:07.344Z,19.45
2018-09-01T08:05:07.302Z,19.49
2018-09-01T08:06:07.259Z,19.56
2018-09-01T08:07:07.218Z,19.56
2018-09-01T08:08:07.178Z,19.71
2018-09-01T08:09:07.136Z,19.74
2018-09-01T08:10:07.090Z,19.77
2018-09-01T08:11:07.065Z,19.87
2018-09-01T08:12:07.014Z,19.99
2018-09-01T08:13:06.965Z,19.97
2018-09-01T08:14:07.079Z,20.04
2018-09-01T08:15:06.887Z,20.11
2018-09-01T08:16:06.840Z,20.19
2018-09-01T08:17:06.798Z,20.27
2018-09-01T08:18:06.763Z,20.29
2018-09-01T08:19:06.712Z,20.37
2018-09-01T08:20:06.678Z,20.30
2018-09-01T08:21:06.637Z,20.34
2018-09-01T08:22:06.590Z,20.48
2018-09-01T08:23:06.547Z,20.34
2018-09-01T08:24:06.505Z,20.46
2018-09-01T08:25:06.462Z,20.48
2018-09-01T08:26:06.486Z,20.53
2018-09-01T08:27:06.392Z,20.67
2018-09-01T08:28:06.340Z,20.71
2018-09-01T08:29:06.335Z,20.78
2018-09-01T08:30:06.256Z,20.83
2018-09-01T08:31:06.222Z,20.92
2018-09-01T08:32:06.192Z,20.89
2018-09-01T08:33:06.160Z,20.98
2018-09-01T08:34:07.543Z,20.98
2018-09-01T08:35:06.062Z,20.98
2018-09-01T08:36:06.023Z,20.96
2018-09-01T08:37:05.989Z,20.98
2018-09-01T08:38:05.926Z,21.05
2018-09-01T08:39:05.885Z,21.05
2018-09-01T08:40:05.860Z,21.10
2018-09-01T08:41:05.803Z,21.13
2018-09-01T08:42:05.768Z,21.10
2018-09-01T08:43:05.726Z,21.11
2018-09-01T08:44:05.680Z,21.20
2018-09-01T08:45:05.638Z,21.26
2018-09-01T08:46:05.600Z,21.22
2018-09-01T08:47:05.562Z,21.25
2018-09-01T08:48:05.525Z,21.38
2018-09-01T08:49:05.477Z,21.32
2018-09-01T08:50:05.437Z,21.28
2018-09-01T08:51:05.396Z,21.32
2018-09-01T08:52:05.358Z,21.26
2018-09-01T08:53:05.335Z,21.15
2018-09-01T08:54:05.290Z,21.23
2018-09-01T08:55:05.234Z,21.26
2018-09-01T08:56:05.201Z,21.26
2018-09-01T08:57:05.154Z,21.23
2018-09-01T08:58:05.114Z,21.23
2018-09-01T08:59:05.075Z,21.25
2018-09-01T09:00:05.055Z,21.28
2018-09-01T09:01:04.995Z,21.41
2018-09-01T09:02:04.955Z,21.38
2018-09-01T09:03:04.912Z,21.38
2018-09-01T09:04:04.873Z,21.29
2018-09-01T09:05:04.833Z,21.44
2018-09-01T09:06:04.796Z,21.37
2018-09-01T09:07:04.755Z,21.45
2018-09-01T09:08:04.730Z,21.45
2018-09-01T09:09:04.781Z,21.58
2018-09-01T09:10:04.632Z,21.60
2018-09-01T09:11:04.693Z,21.58
2018-09-01T09:12:04.558Z,21.62
2018-09-01T09:13:04.695Z,21.66
2018-09-01T09:14:04.474Z,21.65
2018-09-01T09:15:04.433Z,21.75
2018-09-01T09:16:04.395Z,21.74
2018-09-01T09:17:04.351Z,21.74
2018-09-01T09:18:04.309Z,21.81
2018-09-01T09:19:04.276Z,21.83
2018-09-01T09:20:04.245Z,21.88
2018-09-01T09:21:04.196Z,21.97
2018-09-01T09:22:04.156Z,22.00
2018-09-01T09:23:04.110Z,21.99
2018-09-01T09:24:04.075Z,21.99
2018-09-01T09:25:04.031Z,22.06
2018-09-01T09:26:03.990Z,22.04
2018-09-01T09:27:03.953Z,21.96
2018-09-01T09:28:03.913Z,21.91
2018-09-01T09:29:03.869Z,22.04
2018-09-01T09:30:03.833Z,22.06
2018-09-01T09:31:03.790Z,22.08
2018-09-01T09:32:03.754Z,22.19
2018-09-01T09:33:03.709Z,22.19
2018-09-01T09:34:03.678Z,22.21
2018-09-01T09:35:07.887Z,22.19
2018-09-01T09:36:03.590Z,22.31
2018-09-01T09:37:03.547Z,22.38
2018-09-01T09:38:03.508Z,22.36
2018-09-01T09:39:03.474Z,22.44
2018-09-01T09:40:03.427Z,22.49
2018-09-01T09:41:03.386Z,22.41
2018-09-01T09:42:03.543Z,22.53
2018-09-01T09:43:03.310Z,22.47
2018-09-01T09:44:03.266Z,22.56
2018-09-01T09:45:03.224Z,22.59
2018-09-01T09:46:03.185Z,22.62
2018-09-01T09:47:03.148Z,22.58
2018-09-01T09:48:03.105Z,22.71
2018-09-01T09:49:03.066Z,22.70
2018-09-01T09:50:03.024Z,22.63
2018-09-01T09:51:02.988Z,22.71
2018-09-01T09:52:02.952Z,22.67
2018-09-01T09:53:03.023Z,22.73
2018-09-01T09:54:02.863Z,22.76
2018-09-01T09:55:02.872Z,22.76
2018-09-01T09:56:02.786Z,22.80
2018-09-01T09:57:02.748Z,22.89
2018-09-01T09:58:02.709Z,22.91
2018-09-01T09:59:02.664Z,22.83
2018-09-01T10:00:02.627Z,22.95
2018-09-01T10:01:02.659Z,23.07
2018-09-01T10:02:02.550Z,23.08
2018-09-01T10:03:02.504Z,23.04
2018-09-01T10:04:02.477Z,23.04
2018-09-01T10:05:02.437Z,23.11
2018-09-01T10:06:02.384Z,23.10
2018-09-01T10:07:02.343Z,23.08
2018-09-01T10:08:02.311Z,23.08
2018-09-01T10:09:02.267Z,23.02
2018-09-01T10:10:02.225Z,23.16
2018-09-01T10:11:02.240Z,23.14
2018-09-01T10:12:02.149Z,23.14
2018-09-01T10:13:02.104Z,23.16
2018-09-01T10:14:02.067Z,23.17
2018-09-01T10:15:02.028Z,23.25
2018-09-01T10:16:02.019Z,23.26
2018-09-01T10:17:01.948Z,23.37
2018-09-01T10:18:01.905Z,23.33
2018-09-01T10:19:01.866Z,23.39
2018-09-01T10:20:01.872Z,23.40
2018-09-01T10:21:01.786Z,23.40
2018-09-01T10:22:01.749Z,23.20
2018-09-01T10:23:01.707Z,23.26
2018-09-01T10:24:01.670Z,23.08
2018-09-01T10:25:01.632Z,23.08
2018-09-01T10:26:01.588Z,23.02
2018-09-01T10:27:01.572Z,22.95
2018-09-01T10:28:01.511Z,22.80
2018-09-01T10:29:01.467Z,22.71
2018-09-01T10:30:01.428Z,22.74
2018-09-01T10:31:01.390Z,22.59
2018-09-01T10:32:01.352Z,22.61
2018-09-01T10:33:01.312Z,22.74
2018-09-01T10:34:01.272Z,22.76
2018-09-01T10:35:01.229Z,22.70
2018-09-01T10:36:01.189Z,22.74
2018-09-01T10:37:01.148Z,22.86
2018-09-01T10:38:01.109Z,22.92
2018-09-01T10:39:01.068Z,23.02
2018-09-01T10:40:01.031Z,23.08
2018-09-01T10:41:00.989Z,23.25
2018-09-01T10:42:00.947Z,23.37
2018-09-01T10:43:00.910Z,23.36
2018-09-01T10:44:00.869Z,23.44
2018-09-01T10:45:00.826Z,23.58
2018-09-01T10:46:00.792Z,23.54
2018-09-01T10:47:00.752Z,23.49
2018-09-01T10:48:00.767Z,23.37
2018-09-01T10:49:00.670Z,23.21
2018-09-01T10:50:00.629Z,23.26
2018-09-01T10:51:00.590Z,23.08
2018-09-01T10:52:00.550Z,22.96
2018-09-01T10:53:00.511Z,23.01
2018-09-01T10:54:00.468Z,22.93
2018-09-01T10:55:00.436Z,22.91
2018-09-01T10:56:00.392Z,23.01
2018-09-01T10:57:00.349Z,23.02
2018-09-01T10:58:00.310Z,23.07
2018-09-01T10:59:00.440Z,23.16
2018-09-01T11:00:00.231Z,23.20
2018-09-01T11:01:00.189Z,23.34
2018-09-01T11:02:00.151Z,23.44
2018-09-01T11:03:00.115Z,23.55
2018-09-01T11:04:00.073Z,23.73
2018-09-01T11:05:00.063Z,23.82
2018-09-01T11:05:59.993Z,23.82
2018-09-01T11:06:59.951Z,23.85
2018-09-01T11:07:59.912Z,23.91
2018-09-01T11:08:59.873Z,23.88
2018-09-01T11:09:59.833Z,23.81
2018-09-01T11:10:59.795Z,23.74
2018-09-01T11:11:59.755Z,23.63
2018-09-01T11:12:59.719Z,23.56
2018-09-01T11:13:59.674Z,23.47
2018-09-01T11:14:59.640Z,23.64
2018-09-01T11:15:59.595Z,23.66
2018-09-01T11:16:59.556Z,23.62
2018-09-01T11:17:59.517Z,23.59
2018-09-01T11:18:59.479Z,23.62
2018-09-01T11:19:59.473Z,23.70
2018-09-01T11:20:59.447Z,23.84
2018-09-01T11:21:59.358Z,23.95
2018-09-01T11:22:59.329Z,24.09
2018-09-01T11:23:59.284Z,24.09
2018-09-01T11:24:59.241Z,24.25
2018-09-01T11:25:59.204Z,24.38
2018-09-01T11:26:59.192Z,24.51
2018-09-01T11:27:59.186Z,24.62
2018-09-01T11:28:59.083Z,24.65
2018-09-01T11:29:59.046Z,24.61
2018-09-01T11:30:59.007Z,24.66
2018-09-01T11:31:58.969Z,24.71
2018-09-01T11:32:58.930Z,24.69
2018-09-01T11:33:58.888Z,24.68
2018-09-01T11:34:58.850Z,24.59
2018-09-01T11:35:58.813Z,24.50
2018-09-01T11:36:58.774Z,24.51
2018-09-01T11:37:58.735Z,24.46
2018-09-01T11:38:58.693Z,24.50
2018-09-01T11:39:58.654Z,24.48
2018-09-01T11:40:58.617Z,24.46
2018-09-01T11:41:58.575Z,24.37
2018-09-01T11:42:58.757Z,24.29
2018-09-01T11:43:58.507Z,24.14
2018-09-01T11:44:58.460Z,24.14
2018-09-01T11:45:58.423Z,24.10
2018-09-01T11:46:58.382Z,24.09
2018-09-01T11:47:58.342Z,24.11
2018-09-01T11:48:58.303Z,23.95
2018-09-01T11:49:58.263Z,23.94
2018-09-01T11:50:58.232Z,23.95
2018-09-01T11:51:58.186Z,23.99
2018-09-01T11:52:58.149Z,24.01
2018-09-01T11:53:58.121Z,24.01
2018-09-01T11:54:58.075Z,24.10
2018-09-01T11:55:58.029Z,24.09
2018-09-01T11:56:57.992Z,24.25
2018-09-01T11:57:57.951Z,24.31
2018-09-01T11:58:58.045Z,24.36
2018-09-01T11:59:57.871Z,24.63
2018-09-01T12:00:57.847Z,24.78
2018-09-01T12:01:57.838Z,24.88
2018-09-01T12:02:57.766Z,24.94
2018-09-01T12:03:57.740Z,25.26
2018-09-01T12:04:57.675Z,25.37
2018-09-01T12:05:57.643Z,25.29
2018-09-01T12:06:57.601Z,25.22
2018-09-01T12:07:57.560Z,25.19
2018-09-01T12:08:57.621Z,25.19
2018-09-01T12:09:57.481Z,25.14
2018-09-01T12:10:57.447Z,25.19
2018-09-01T12:11:57.407Z,25.07
2018-09-01T12:12:57.368Z,24.99
2018-09-01T12:13:57.343Z,25.00
2018-09-01T12:14:57.293Z,24.89
2018-09-01T12:15:57.390Z,24.78
2018-09-01T12:16:57.213Z,24.68
2018-09-01T12:17:57.171Z,24.69
2018-09-01T12:18:57.133Z,24.56
2018-09-01T12:19:57.095Z,24.55
2018-09-01T12:20:57.057Z,24.40
2018-09-01T12:21:57.017Z,24.38
2018-09-01T12:22:56.980Z,24.31
2018-09-01T12:23:56.944Z,24.29
2018-09-01T12:24:56.899Z,24.25
2018-09-01T12:25:56.861Z,24.14
2018-09-01T12:26:56.825Z,24.13
2018-09-01T12:27:56.786Z,24.10
2018-09-01T12:28:56.743Z,24.01
2018-09-01T12:29:56.710Z,24.00
2018-09-01T12:30:56.668Z,23.94
2018-09-01T12:31:56.632Z,23.95
2018-09-01T12:32:56.660Z,23.92
2018-09-01T12:33:56.552Z,23.88
2018-09-01T12:34:56.512Z,23.89
2018-09-01T12:35:56.472Z,23.76
2018-09-01T12:36:56.433Z,23.76
2018-09-01T12:37:56.393Z,23.85
2018-09-01T12:38:56.352Z,24.11
2018-09-01T12:39:56.314Z,24.38
2018-09-01T12:40:56.274Z,24.58
2018-09-01T12:41:56.292Z,24.79
2018-09-01T12:42:56.196Z,24.99
2018-09-01T12:43:56.158Z,25.15
2018-09-01T12:44:56.118Z,25.31
2018-09-01T12:45:56.086Z,25.56
2018-09-01T12:46:56.043Z,25.66
2018-09-01T12:47:56.003Z,25.91
2018-09-01T12:48:55.967Z,26.03
2018-09-01T12:49:55.924Z,26.23
2018-09-01T12:50:55.886Z,26.42
2018-09-01T12:51:55.847Z,26.76